createdAt,value
2022-12-03T00:01:14.462Z,23.35
2022-12-03T00:03:41.734Z,18.73
2022-12-03T00:06:08.918Z,23.48
2022-12-03T00:08:36.159Z,22.48
2022-12-03T00:11:03.457Z,19.27
2022-12-03T00:13:30.758Z,18.85
2022-12-03T00:15:58.051Z,24.50
2022-12-03T00:18:25.533Z,19.88
2022-12-03T00:20:55.608Z,24.95
2022-12-03T00:23:25.457Z,29.08
2022-12-03T00:25:52.780Z,21.13
2022-12-03T00:28:20.090Z,21.30
2022-12-03T00:30:47.291Z,23.60
2022-12-03T00:33:14.549Z,24.98
2022-12-03T00:35:41.701Z,17.52
2022-12-03T00:38:09.024Z,20.10
2022-12-03T00:40:36.410Z,22.17
2022-12-03T00:43:03.739Z,23.60
2022-12-03T00:45:31.441Z,22.75
2022-12-03T00:48:01.172Z,18.42
2022-12-03T00:50:28.451Z,18.73
2022-12-03T00:52:55.961Z,20.88
2022-12-03T00:55:23.397Z,13.55
2022-12-03T00:57:50.602Z,18.13
2022-12-03T01:00:18.173Z,17.75
2022-12-03T01:02:46.092Z,16.33
2022-12-03T01:05:13.421Z,18.30
2022-12-03T01:07:41.039Z,24.00
2022-12-03T01:10:08.829Z,24.27
2022-12-03T01:12:38.252Z,19.80
2022-12-03T01:15:10.449Z,19.65
2022-12-03T01:17:38.209Z,22.80
2022-12-03T01:20:09.127Z,21.17
2022-12-03T01:22:36.617Z,21.02
2022-12-03T01:25:04.539Z,22.60
2022-12-03T01:27:31.850Z,15.25
2022-12-03T01:30:02.644Z,20.70
2022-12-03T01:32:31.731Z,17.75
2022-12-03T01:35:01.823Z,18.92
2022-12-03T01:37:31.487Z,14.32
2022-12-03T01:39:58.559Z,19.25
2022-12-03T01:42:39.043Z,16.50
2022-12-03T01:45:07.962Z,16.90
2022-12-03T01:47:37.131Z,20.65
2022-12-03T01:50:19.836Z,21.10
2022-12-03T01:52:47.164Z,20.27
2022-12-03T01:55:18.386Z,19.63
2022-12-03T01:57:51.780Z,16.58
2022-12-03T02:00:22.166Z,19.20
2022-12-03T02:02:58.506Z,20.40
2022-12-03T02:05:28.679Z,18.50
2022-12-03T02:07:56.227Z,16.85
2022-12-03T02:10:38.137Z,20.42
2022-12-03T02:13:08.698Z,17.13
2022-12-03T02:15:40.917Z,18.40
2022-12-03T02:20:59.884Z,26.13
2022-12-03T02:23:39.376Z,20.58
2022-12-03T02:26:09.133Z,23.13
2022-12-03T02:28:36.499Z,18.42
2022-12-03T02:31:05.374Z,19.60
2022-12-03T02:33:32.887Z,17.35
2022-12-03T02:36:03.627Z,22.02
2022-12-03T02:38:32.842Z,21.70
2022-12-03T02:41:04.930Z,19.48
2022-12-03T02:43:32.082Z,17.73
2022-12-03T02:46:01.988Z,19.45
2022-12-03T02:48:36.477Z,18.38
2022-12-03T02:51:07.334Z,24.10
2022-12-03T02:53:47.513Z,23.20
2022-12-03T02:56:18.879Z,23.13
2022-12-03T02:58:50.964Z,18.58
2022-12-03T03:01:18.604Z,16.48
2022-12-03T03:03:47.491Z,20.05
2022-12-03T03:06:19.363Z,15.40
2022-12-03T03:08:46.582Z,16.52
2022-12-03T03:11:14.562Z,22.80
2022-12-03T03:13:42.116Z,18.98
2022-12-03T03:16:09.552Z,18.77
2022-12-03T03:18:37.372Z,15.55
2022-12-03T03:21:05.312Z,16.17
2022-12-03T03:23:36.539Z,22.30
2022-12-03T03:26:07.428Z,20.35
2022-12-03T03:28:48.071Z,17.42
2022-12-03T03:31:17.645Z,19.58
2022-12-03T03:33:49.344Z,14.45
2022-12-03T03:36:17.386Z,15.90
2022-12-03T03:38:47.814Z,19.02
2022-12-03T03:41:15.911Z,16.55
2022-12-03T03:43:44.579Z,17.52
2022-12-03T03:46:12.644Z,16.10
2022-12-03T03:48:41.604Z,13.02
2022-12-03T03:51:10.424Z,15.93
2022-12-03T03:53:40.872Z,15.20
2022-12-03T03:56:09.794Z,16.92
2022-12-03T03:58:38.033Z,18.08
2022-12-03T04:01:05.427Z,19.63
2022-12-03T04:03:35.404Z,18.58
2022-12-03T04:06:02.788Z,16.25
2022-12-03T04:08:30.226Z,16.35
2022-12-03T04:11:16.212Z,16.55
2022-12-03T04:13:43.607Z,15.32
2022-12-03T04:16:10.997Z,21.98
2022-12-03T04:18:44.111Z,15.90
2022-12-03T04:21:38.578Z,17.13
2022-12-03T04:24:07.482Z,17.33
2022-12-03T04:26:53.091Z,16.77
2022-12-03T04:29:21.112Z,18.77
2022-12-03T04:32:06.748Z,19.52
2022-12-03T04:34:52.506Z,12.07
2022-12-03T04:37:20.305Z,17.45
2022-12-03T04:39:47.763Z,23.52
2022-12-03T04:42:15.378Z,17.85
2022-12-03T04:44:45.221Z,22.13
2022-12-03T04:47:20.070Z,19.83
2022-12-03T04:49:51.871Z,22.25
2022-12-03T04:52:22.988Z,17.05
2022-12-03T04:54:50.169Z,16.70
2022-12-03T04:57:17.484Z,14.50
2022-12-03T04:59:44.641Z,16.88
2022-12-03T05:02:11.941Z,16.52
2022-12-03T05:04:39.088Z,14.05
2022-12-03T05:07:06.715Z,17.60
2022-12-03T05:09:34.065Z,17.60
2022-12-03T05:12:01.508Z,21.08
2022-12-03T05:14:29.068Z,21.90
2022-12-03T05:16:56.646Z,18.30
2022-12-03T05:19:44.352Z,17.80
2022-12-03T05:22:11.813Z,13.90
2022-12-03T05:24:39.416Z,22.73
2022-12-03T05:27:06.785Z,16.35
2022-12-03T05:29:34.139Z,22.95
2022-12-03T05:32:01.517Z,24.90
2022-12-03T05:34:29.000Z,19.98
2022-12-03T05:36:56.292Z,17.98
2022-12-03T05:39:25.859Z,22.25
2022-12-03T05:42:11.623Z,25.23
2022-12-03T05:44:39.898Z,22.45
2022-12-03T05:47:07.274Z,21.52
2022-12-03T05:49:34.680Z,15.00
2022-12-03T05:52:01.694Z,24.90
2022-12-03T05:54:32.107Z,30.40
2022-12-03T05:56:59.230Z,18.52
2022-12-03T05:59:26.474Z,23.67
2022-12-03T06:01:53.482Z,15.40
2022-12-03T06:04:20.703Z,26.00
2022-12-03T06:06:47.882Z,38.38
2022-12-03T06:09:14.852Z,38.70
2022-12-03T06:11:42.049Z,39.63
2022-12-03T06:14:09.392Z,47.80
2022-12-03T06:16:36.745Z,59.28
2022-12-03T06:19:06.857Z,39.05
2022-12-03T06:21:34.041Z,34.45
2022-12-03T06:24:01.805Z,33.03
2022-12-03T06:26:35.414Z,40.95
2022-12-03T06:29:02.571Z,40.50
2022-12-03T06:31:33.037Z,36.80
2022-12-03T06:34:00.373Z,35.47
2022-12-03T06:36:28.007Z,30.50
2022-12-03T06:38:55.211Z,35.88
2022-12-03T06:41:22.639Z,31.30
2022-12-03T06:43:50.335Z,41.90
2022-12-03T06:46:20.749Z,32.78
2022-12-03T06:48:50.584Z,32.38
2022-12-03T06:51:20.860Z,31.13
2022-12-03T06:53:48.025Z,33.35
2022-12-03T06:56:17.869Z,37.28
2022-12-03T06:58:48.837Z,34.15
2022-12-03T07:01:16.290Z,28.80
2022-12-03T07:03:43.650Z,25.30
2022-12-03T07:06:11.135Z,36.03
2022-12-03T07:08:38.682Z,27.55
2022-12-03T07:11:26.635Z,33.30
2022-12-03T07:13:54.219Z,43.78
2022-12-03T07:16:21.736Z,33.05
2022-12-03T07:18:50.267Z,47.72
2022-12-03T07:21:18.144Z,73.93
2022-12-03T07:23:45.519Z,32.15
2022-12-03T07:26:13.076Z,30.90
2022-12-03T07:28:43.743Z,34.45
2022-12-03T07:31:14.084Z,39.70
2022-12-03T07:33:44.618Z,29.98
2022-12-03T07:36:15.020Z,32.63
2022-12-03T07:38:48.823Z,56.28
2022-12-03T07:41:16.454Z,41.17
2022-12-03T07:43:48.322Z,42.67
2022-12-03T07:46:16.262Z,52.65
2022-12-03T07:48:46.337Z,58.25
2022-12-03T07:51:15.455Z,35.50
2022-12-03T07:53:43.126Z,37.70
2022-12-03T07:56:16.568Z,48.90
2022-12-03T07:58:46.514Z,41.67
2022-12-03T08:01:14.024Z,31.65
2022-12-03T08:03:47.596Z,32.88
2022-12-03T08:06:18.605Z,28.55
2022-12-03T08:08:46.052Z,24.30
2022-12-03T08:11:17.071Z,29.40
2022-12-03T08:13:44.401Z,32.88
2022-12-03T08:16:19.547Z,30.77
2022-12-03T08:18:48.076Z,26.90
2022-12-03T08:21:20.036Z,27.20
2022-12-03T08:23:47.937Z,28.20
2022-12-03T08:26:17.503Z,33.30
2022-12-03T08:28:44.918Z,31.95
2022-12-03T08:31:32.709Z,43.90
2022-12-03T08:34:20.106Z,29.13
2022-12-03T08:36:56.287Z,28.27
2022-12-03T08:39:36.343Z,30.90
2022-12-03T08:42:34.825Z,25.80
2022-12-03T08:45:40.920Z,30.88
2022-12-03T08:48:28.783Z,28.67
2022-12-03T08:50:58.976Z,30.85
2022-12-03T08:53:29.292Z,36.15
2022-12-03T08:56:21.078Z,34.83
2022-12-03T08:58:53.327Z,35.22
2022-12-03T09:01:34.110Z,32.42
2022-12-03T09:04:20.267Z,31.70
2022-12-03T09:06:51.847Z,24.15
2022-12-03T09:09:19.244Z,25.00
2022-12-03T09:11:50.498Z,28.15
2022-12-03T09:14:18.871Z,28.58
2022-12-03T09:16:46.586Z,24.55
2022-12-03T09:19:13.878Z,22.27
2022-12-03T09:21:43.276Z,32.13
2022-12-03T09:24:13.193Z,31.65
2022-12-03T09:26:40.717Z,27.83
2022-12-03T09:29:12.057Z,26.17
2022-12-03T09:31:40.600Z,30.13
2022-12-03T09:34:11.297Z,29.45
2022-12-03T09:36:41.319Z,27.60
2022-12-03T09:39:09.088Z,30.15
2022-12-03T09:41:36.846Z,33.28
2022-12-03T09:44:05.516Z,27.80
2022-12-03T09:46:38.780Z,29.30
2022-12-03T09:49:13.895Z,23.83
2022-12-03T09:51:45.827Z,29.80
2022-12-03T09:54:26.099Z,29.45
2022-12-03T09:56:55.667Z,28.98
2022-12-03T09:59:27.338Z,29.88
2022-12-03T10:01:55.330Z,25.15
2022-12-03T10:04:23.026Z,30.02
2022-12-03T10:06:50.808Z,26.73
2022-12-03T10:09:24.497Z,27.02
2022-12-03T10:11:52.073Z,25.70
2022-12-03T10:14:20.596Z,26.15
2022-12-03T10:16:48.548Z,22.38
2022-12-03T10:19:26.547Z,40.42
2022-12-03T10:22:00.116Z,30.25
2022-12-03T10:24:35.696Z,31.35
2022-12-03T10:27:19.641Z,25.67
2022-12-03T10:29:56.456Z,21.73
2022-12-03T10:32:42.390Z,22.02
2022-12-03T10:35:29.216Z,29.45
2022-12-03T10:38:22.499Z,32.58
2022-12-03T10:40:50.448Z,32.47
2022-12-03T10:43:20.769Z,33.83
2022-12-03T10:45:52.666Z,26.73
2022-12-03T10:48:30.759Z,38.47
2022-12-03T10:51:03.548Z,46.00
2022-12-03T10:53:33.631Z,60.58
2022-12-03T10:56:03.198Z,48.60
2022-12-03T10:58:37.390Z,44.90
2022-12-03T11:01:27.926Z,52.17
2022-12-03T11:04:04.348Z,59.42
2022-12-03T11:06:33.323Z,50.83
2022-12-03T11:09:08.330Z,36.67
2022-12-03T11:11:36.977Z,30.00
2022-12-03T11:14:05.188Z,35.85
2022-12-03T11:16:41.729Z,38.45
2022-12-03T11:19:38.400Z,36.53
2022-12-03T11:22:11.742Z,33.33
2022-12-03T11:24:40.883Z,38.88
2022-12-03T11:27:18.093Z,31.85
2022-12-03T11:29:51.856Z,30.20
2022-12-03T11:32:43.951Z,33.92
2022-12-03T11:35:38.430Z,33.10
2022-12-03T11:38:53.362Z,25.95
2022-12-03T11:41:34.971Z,28.90
2022-12-03T11:44:29.857Z,30.85
2022-12-03T11:46:58.900Z,25.63
2022-12-03T11:49:31.896Z,27.02
2022-12-03T11:52:01.691Z,28.92
2022-12-03T11:54:34.156Z,30.00
2022-12-03T11:57:28.278Z,37.38
2022-12-03T12:00:19.356Z,37.53
2022-12-03T12:02:47.648Z,38.88
2022-12-03T12:05:25.032Z,42.70
2022-12-03T12:07:57.387Z,39.17
2022-12-03T12:10:48.159Z,38.88
2022-12-03T12:13:35.747Z,41.50
2022-12-03T12:16:07.989Z,32.50
2022-12-03T12:18:39.734Z,33.03
2022-12-03T12:21:42.815Z,34.83
2022-12-03T12:24:29.318Z,29.95
2022-12-03T12:27:01.903Z,33.42
2022-12-03T12:29:29.557Z,33.45
2022-12-03T12:32:15.425Z,33.15
2022-12-03T12:34:48.445Z,40.35
2022-12-03T12:37:35.486Z,30.17
2022-12-03T12:40:13.601Z,38.47
2022-12-03T12:42:50.818Z,31.30
2022-12-03T12:45:30.377Z,27.90
2022-12-03T12:48:21.080Z,32.42
2022-12-03T12:51:10.564Z,28.48
2022-12-03T12:53:39.904Z,30.88
2022-12-03T12:56:08.392Z,39.55
2022-12-03T12:58:36.577Z,35.65
2022-12-03T13:01:13.479Z,32.53
2022-12-03T13:03:40.788Z,37.53
2022-12-03T13:06:15.199Z,29.08
2022-12-03T13:08:49.202Z,37.47
2022-12-03T13:11:42.443Z,35.53
2022-12-03T13:14:18.019Z,37.55
2022-12-03T13:16:47.656Z,32.28
2022-12-03T13:19:43.532Z,38.60
2022-12-03T13:22:25.853Z,34.55
2022-12-03T13:24:56.601Z,37.88
2022-12-03T13:27:32.821Z,29.33
2022-12-03T13:30:18.519Z,34.17
2022-12-03T13:32:45.870Z,27.63
2022-12-03T13:35:24.152Z,27.13
2022-12-03T13:37:51.531Z,32.20
2022-12-03T13:40:31.815Z,44.58
2022-12-03T13:43:02.198Z,31.92
2022-12-03T13:45:46.774Z,32.15
2022-12-03T13:48:31.551Z,27.23
2022-12-03T13:51:19.171Z,62.47
2022-12-03T13:53:46.546Z,33.30
2022-12-03T13:56:28.148Z,32.17
2022-12-03T13:58:57.491Z,28.20
2022-12-03T14:01:26.159Z,28.90
2022-12-03T14:03:53.476Z,25.70
2022-12-03T14:06:21.526Z,23.38
2022-12-03T14:08:51.496Z,29.38
2022-12-03T14:11:40.705Z,28.80
2022-12-03T14:14:07.981Z,26.63
2022-12-03T14:16:35.645Z,28.35
2022-12-03T14:19:02.878Z,40.13
2022-12-03T14:21:30.354Z,44.67
2022-12-03T14:23:57.465Z,38.17
2022-12-03T14:26:24.957Z,30.25
2022-12-03T14:28:52.365Z,39.63
2022-12-03T14:31:19.911Z,33.20
2022-12-03T14:33:47.347Z,32.67
2022-12-03T14:36:14.469Z,39.88
2022-12-03T14:38:41.625Z,33.35
2022-12-03T14:41:29.144Z,33.70
2022-12-03T14:43:56.510Z,39.55
2022-12-03T14:46:24.070Z,32.88
2022-12-03T14:48:51.850Z,36.03
2022-12-03T14:51:19.961Z,32.30
2022-12-03T14:53:47.113Z,34.70
2022-12-03T14:56:16.501Z,36.28
2022-12-03T14:58:43.874Z,43.55
2022-12-03T15:01:11.011Z,42.47
2022-12-03T15:03:38.211Z,42.47
2022-12-03T15:06:05.835Z,44.88
2022-12-03T15:08:33.164Z,40.17
2022-12-03T15:11:00.857Z,45.95
2022-12-03T15:13:28.740Z,38.88
2022-12-03T15:15:56.312Z,37.15
2022-12-03T15:18:23.553Z,40.05
2022-12-03T15:20:50.699Z,42.83
2022-12-03T15:23:18.268Z,34.65
2022-12-03T15:25:48.009Z,40.50
2022-12-03T15:28:15.341Z,57.08
2022-12-03T15:30:42.768Z,47.97
2022-12-03T15:33:09.994Z,39.55
2022-12-03T15:35:37.317Z,46.28
2022-12-03T15:38:04.507Z,52.10
2022-12-03T15:40:34.709Z,40.58
2022-12-03T15:43:02.130Z,32.85
2022-12-03T15:45:30.405Z,43.50
2022-12-03T15:48:00.849Z,42.33
2022-12-03T15:50:28.405Z,44.67
2022-12-03T15:52:55.637Z,53.00
2022-12-03T15:55:23.081Z,42.13
2022-12-03T15:57:50.851Z,41.78
2022-12-03T16:00:18.506Z,40.05
2022-12-03T16:02:52.509Z,43.30
2022-12-03T16:05:21.937Z,35.28
2022-12-03T16:07:48.996Z,37.55
2022-12-03T16:10:18.087Z,33.65
2022-12-03T16:12:45.538Z,30.60
2022-12-03T16:15:12.729Z,36.13
2022-12-03T16:17:40.257Z,31.10
2022-12-03T16:20:08.267Z,38.47
2022-12-03T16:22:36.534Z,34.45
2022-12-03T16:25:05.324Z,36.10
2022-12-03T16:27:32.422Z,45.53
2022-12-03T16:29:59.844Z,30.58
2022-12-03T16:32:30.573Z,36.45
2022-12-03T16:34:57.924Z,39.85
2022-12-03T16:37:25.267Z,39.20
2022-12-03T16:39:52.990Z,37.42
2022-12-03T16:42:20.849Z,36.40
2022-12-03T16:45:07.254Z,46.08
2022-12-03T16:47:35.591Z,46.42
2022-12-03T16:50:05.081Z,33.80
2022-12-03T16:52:32.245Z,41.08
2022-12-03T16:54:59.952Z,37.10
2022-12-03T16:57:33.747Z,38.28
2022-12-03T17:00:01.932Z,36.70
2022-12-03T17:02:31.552Z,40.28
2022-12-03T17:04:58.974Z,32.92
2022-12-03T17:07:26.364Z,38.42
2022-12-03T17:09:54.030Z,33.55
2022-12-03T17:12:21.505Z,32.45
2022-12-03T17:14:48.663Z,39.45
2022-12-03T17:17:18.828Z,31.55
2022-12-03T17:19:45.986Z,41.22
2022-12-03T17:22:16.052Z,40.05
2022-12-03T17:24:46.106Z,34.30
2022-12-03T17:27:13.378Z,45.83
2022-12-03T17:29:43.581Z,35.60
2022-12-03T17:32:10.996Z,32.90
2022-12-03T17:34:38.493Z,41.08
2022-12-03T17:37:05.654Z,47.90
2022-12-03T17:39:32.861Z,35.15
2022-12-03T17:42:00.075Z,49.42
2022-12-03T17:44:27.212Z,45.33
2022-12-03T17:46:54.561Z,43.58
2022-12-03T17:49:25.650Z,39.55
2022-12-03T17:51:56.128Z,45.42
2022-12-03T17:54:23.530Z,54.92
2022-12-03T17:56:53.653Z,48.60
2022-12-03T17:59:21.067Z,47.05
2022-12-03T18:01:48.631Z,54.67
2022-12-03T18:04:16.058Z,53.47
2022-12-03T18:06:43.386Z,56.25
2022-12-03T18:09:10.648Z,45.53
2022-12-03T18:11:37.819Z,51.78
2022-12-03T18:14:05.089Z,47.83
2022-12-03T18:16:32.383Z,54.13
2022-12-03T18:19:04.766Z,51.47
2022-12-03T18:21:33.956Z,50.08
2022-12-03T18:24:02.697Z,50.00
2022-12-03T18:26:30.104Z,41.08
2022-12-03T18:28:59.754Z,43.45
2022-12-03T18:31:27.218Z,43.05
2022-12-03T18:33:54.922Z,47.03
2022-12-03T18:36:36.403Z,48.17
2022-12-03T18:39:06.297Z,47.28
2022-12-03T18:41:33.932Z,47.40
2022-12-03T18:44:04.775Z,45.30
2022-12-03T18:46:52.505Z,52.88
2022-12-03T18:49:19.349Z,47.97
2022-12-03T18:51:47.553Z,45.92
2022-12-03T18:54:15.853Z,48.63
2022-12-03T18:56:43.346Z,46.30
2022-12-03T18:59:11.620Z,44.00
2022-12-03T19:01:38.906Z,38.67
2022-12-03T19:04:06.393Z,41.90
2022-12-03T19:06:33.533Z,48.95
2022-12-03T19:09:00.712Z,49.95
2022-12-03T19:11:28.269Z,41.90
2022-12-03T19:13:57.371Z,40.90
2022-12-03T19:16:24.780Z,48.58
2022-12-03T19:18:53.517Z,39.95
2022-12-03T19:21:21.237Z,40.22
2022-12-03T19:24:21.981Z,48.95
2022-12-03T19:26:36.079Z,47.40
2022-12-03T19:29:06.040Z,50.95
2022-12-03T19:31:33.829Z,50.33
2022-12-03T19:34:01.151Z,52.30
2022-12-03T19:36:30.429Z,46.80
2022-12-03T19:39:00.093Z,43.05
2022-12-03T19:41:30.745Z,44.30
2022-12-03T19:43:58.856Z,39.25
2022-12-03T19:46:31.485Z,34.55
2022-12-03T19:51:34.656Z,36.65
2022-12-03T19:54:04.609Z,43.00
2022-12-03T19:56:32.134Z,46.53
2022-12-03T19:58:59.835Z,45.20
2022-12-03T20:01:30.292Z,44.70
2022-12-03T20:03:59.807Z,54.85
2022-12-03T20:06:32.652Z,44.45
2022-12-03T20:09:05.574Z,38.20
2022-12-03T20:11:33.772Z,39.30
2022-12-03T20:14:04.241Z,53.08
2022-12-03T20:16:31.806Z,43.58
2022-12-03T20:19:01.807Z,52.35
2022-12-03T20:21:34.038Z,52.63
2022-12-03T20:24:01.297Z,42.05
2022-12-03T20:26:29.200Z,44.47
2022-12-03T20:28:57.592Z,41.35
2022-12-03T20:31:27.635Z,37.28
2022-12-03T20:33:57.781Z,36.47
2022-12-03T20:36:28.354Z,32.70
2022-12-03T20:39:04.516Z,40.75
2022-12-03T20:41:34.092Z,36.05
2022-12-03T20:44:02.449Z,40.13
2022-12-03T20:46:31.806Z,39.20
2022-12-03T20:48:59.816Z,46.60
2022-12-03T20:51:31.252Z,40.13
2022-12-03T20:53:59.565Z,37.83
2022-12-03T20:56:35.839Z,34.53
2022-12-03T20:59:05.823Z,34.25
2022-12-03T21:01:34.668Z,31.58
2022-12-03T21:04:03.617Z,38.25
2022-12-03T21:06:31.776Z,44.60
2022-12-03T21:08:59.361Z,34.30
2022-12-03T21:11:30.874Z,29.65
2022-12-03T21:13:59.261Z,36.38
2022-12-03T21:16:52.507Z,33.30
2022-12-03T21:19:18.592Z,31.10
2022-12-03T21:21:46.283Z,30.55
2022-12-03T21:24:14.163Z,38.92
2022-12-03T21:26:43.659Z,25.83
2022-12-03T21:29:11.179Z,30.42
2022-12-03T21:31:40.065Z,33.13
2022-12-03T21:34:08.849Z,30.25
2022-12-03T21:36:36.409Z,29.70
2022-12-03T21:39:05.020Z,30.52
2022-12-03T21:41:32.535Z,29.27
2022-12-03T21:43:59.697Z,29.05
2022-12-03T21:47:09.833Z,32.33
2022-12-03T21:49:14.816Z,31.52
2022-12-03T21:51:41.840Z,23.30
2022-12-03T21:54:09.206Z,29.88
2022-12-03T21:56:36.468Z,29.08
2022-12-03T21:59:04.687Z,28.95
2022-12-03T22:01:32.234Z,27.40
2022-12-03T22:03:59.601Z,29.40
2022-12-03T22:06:29.265Z,29.33
2022-12-03T22:08:57.341Z,24.05
2022-12-03T22:11:28.191Z,28.73
2022-12-03T22:13:57.269Z,34.35
2022-12-03T22:16:25.330Z,28.30
2022-12-03T22:18:52.594Z,27.27
2022-12-03T22:21:20.760Z,31.38
2022-12-03T22:23:48.273Z,29.75
2022-12-03T22:26:17.604Z,32.85
2022-12-03T22:28:49.657Z,24.58
2022-12-03T22:31:18.571Z,26.95
2022-12-03T22:33:48.656Z,26.92
2022-12-03T22:36:20.994Z,24.48
2022-12-03T22:38:50.291Z,26.63
2022-12-03T22:41:18.424Z,28.92
2022-12-03T22:43:46.912Z,28.05
2022-12-03T22:46:14.873Z,27.45
2022-12-03T22:48:43.317Z,27.35
2022-12-03T22:51:17.850Z,26.20
2022-12-03T22:53:45.701Z,26.40
2022-12-03T22:56:14.315Z,26.27
2022-12-03T22:58:41.605Z,21.52
2022-12-03T23:01:09.142Z,27.05
2022-12-03T23:03:37.094Z,21.95
2022-12-03T23:06:11.751Z,23.05
2022-12-03T23:08:39.351Z,20.65
2022-12-03T23:11:07.656Z,26.08
2022-12-03T23:13:35.430Z,24.42
2022-12-03T23:16:02.877Z,20.48
2022-12-03T23:18:30.487Z,26.48
2022-12-03T23:20:58.420Z,26.10
2022-12-03T23:23:27.467Z,28.05
2022-12-03T23:26:02.862Z,22.52
2022-12-03T23:28:31.547Z,25.27
2022-12-03T23:30:58.696Z,26.88
2022-12-03T23:33:26.723Z,17.85
2022-12-03T23:35:54.086Z,30.33
2022-12-03T23:38:27.571Z,26.35
2022-12-03T23:40:55.571Z,20.42
2022-12-03T23:43:23.824Z,23.25
2022-12-03T23:45:52.122Z,25.77
2022-12-03T23:48:19.337Z,27.35
2022-12-03T23:50:46.505Z,28.10
2022-12-03T23:53:13.754Z,27.00
2022-12-03T23:55:41.239Z,26.98
2022-12-03T23:58:08.390Z,24.40
